地図

経路データ

SID SEASON NUMBER BASIN SUBBASIN NAME ISO_TIME NATURE LAT LON WMO_WIND WMO_PRES WMO_AGENCY TRACK_TYPE DIST2LAND LANDFALL IFLAG USA_AGENCY USA_ATCF_ID USA_LAT USA_LON USA_RECORD USA_STATUS USA_WIND USA_PRES USA_SSHS USA_R34_NE USA_R34_SE USA_R34_SW USA_R34_NW USA_R50_NE USA_R50_SE USA_R50_SW USA_R50_NW USA_R64_NE USA_R64_SE USA_R64_SW USA_R64_NW USA_POCI USA_ROCI USA_RMW USA_EYE TOKYO_LAT TOKYO_LON TOKYO_GRADE TOKYO_WIND TOKYO_PRES TOKYO_R50_DIR TOKYO_R50_LONG TOKYO_R50_SHORT TOKYO_R30_DIR TOKYO_R30_LONG TOKYO_R30_SHORT TOKYO_LAND CMA_LAT CMA_LON CMA_CAT CMA_WIND CMA_PRES HKO_LAT HKO_LON HKO_CAT HKO_WIND HKO_PRES NEWDELHI_LAT NEWDELHI_LON NEWDELHI_GRADE NEWDELHI_WIND NEWDELHI_PRES NEWDELHI_CI NEWDELHI_DP NEWDELHI_POCI REUNION_LAT REUNION_LON REUNION_TYPE REUNION_WIND REUNION_PRES REUNION_TNUM REUNION_CI REUNION_RMW REUNION_R34_NE REUNION_R34_SE REUNION_R34_SW REUNION_R34_NW REUNION_R50_NE REUNION_R50_SE REUNION_R50_SW REUNION_R50_NW REUNION_R64_NE REUNION_R64_SE REUNION_R64_SW REUNION_R64_NW BOM_LAT BOM_LON BOM_TYPE BOM_WIND BOM_PRES BOM_TNUM BOM_CI BOM_RMW BOM_R34_NE BOM_R34_SE BOM_R34_SW BOM_R34_NW BOM_R50_NE BOM_R50_SE BOM_R50_SW BOM_R50_NW BOM_R64_NE BOM_R64_SE BOM_R64_SW BOM_R64_NW BOM_ROCI BOM_POCI BOM_EYE BOM_POS_METHOD BOM_PRES_METHOD NADI_LAT NADI_LON NADI_CAT NADI_WIND NADI_PRES WELLINGTON_LAT WELLINGTON_LON WELLINGTON_WIND WELLINGTON_PRES DS824_LAT DS824_LON DS824_STAGE DS824_WIND DS824_PRES TD9636_LAT TD9636_LON TD9636_STAGE TD9636_WIND TD9636_PRES TD9635_LAT TD9635_LON TD9635_WIND TD9635_PRES TD9635_ROCI NEUMANN_LAT NEUMANN_LON NEUMANN_CLASS NEUMANN_WIND NEUMANN_PRES MLC_LAT MLC_LON MLC_CLASS MLC_WIND MLC_PRES USA_GUST BOM_GUST BOM_GUST_PER REUNION_GUST REUNION_GUST_PER USA_SEAHGT USA_SEARAD_NE USA_SEARAD_SE USA_SEARAD_SW USA_SEARAD_NW STORM_SPEED STORM_DIR
1868316S08077 1869 19 SI MM NOT_NAMED 1868-11-11 06:00:00 NR -8.30000 76.5000 reunion main 1654 1654 _____O________ -1 -8.30000 76.5000 99 9.90000 3 247
1868316S08077 1869 19 SI MM NOT_NAMED 1868-11-11 09:00:00 NR -8.35672 76.3645 main 1668 1668 _____P________ -1 -8.35672 76.3645 99 3 247
1868316S08077 1869 19 SI MM NOT_NAMED 1868-11-11 12:00:00 NR -8.41396 76.2251 main 1675 1675 _____P________ -1 -8.41396 76.2251 99 3 248
1868316S08077 1869 19 SI MM NOT_NAMED 1868-11-11 15:00:00 NR -8.47230 76.0783 main 1689 1689 _____P________ -1 -8.47230 76.0783 99 3 249
1868316S08077 1869 19 SI MM NOT_NAMED 1868-11-11 18:00:00 NR -8.53231 75.9202 main 1695 1695 _____P________ -1 -8.53231 75.9202 99 4 250
1868316S08077 1869 19 SI MM NOT_NAMED 1868-11-11 21:00:00 NR -8.59454 75.7471 main 1713 1713 _____P________ -1 -8.59454 75.7471 99 4 251
1868316S08077 1869 19 SI MM NOT_NAMED 1868-11-12 00:00:00 NR -8.65954 75.5552 main 1727 1727 _____P________ -1 -8.65954 75.5552 99 4 252
1868316S08077 1869 19 SI MM NOT_NAMED 1868-11-12 03:00:00 NR -8.72785 75.3408 main 1738 1738 _____P________ -1 -8.72785 75.3408 99 5 253
1868316S08077 1869 19 SI MM NOT_NAMED 1868-11-12 06:00:00 NR -8.80000 75.1000 reunion main 1755 1755 _____O________ -1 -8.80000 75.1000 99 9.90000 5 254
1868316S08077 1869 19 SI MM NOT_NAMED 1868-11-12 09:00:00 NR -8.87655 74.8304 main 1777 1777 _____P________ -1 -8.87655 74.8304 99 6 254
1868316S08077 1869 19 SI MM NOT_NAMED 1868-11-12 12:00:00 NR -8.95823 74.5343 main 1799 1799 _____P________ -1 -8.95823 74.5343 99 6 254
1868316S08077 1869 19 SI MM NOT_NAMED 1868-11-12 15:00:00 NR -9.04580 74.2152 main 1811 1811 _____P________ -1 -9.04580 74.2152 99 7 254
1868316S08077 1869 19 SI MM NOT_NAMED 1868-11-12 18:00:00 NR -9.14006 73.8767 main 1834 1834 _____P________ -1 -9.14006 73.8767 99 7 254
1868316S08077 1869 19 SI MM NOT_NAMED 1868-11-12 21:00:00 NR -9.24180 73.5224 main 1862 1862 _____P________ -1 -9.24180 73.5224 99 7 253
1868316S08077 1869 19 SI MM NOT_NAMED 1868-11-13 00:00:00 NR -9.35182 73.1559 main 1896 1896 _____P________ -1 -9.35182 73.1559 99 8 253
1868316S08077 1869 19 SI MM NOT_NAMED 1868-11-13 03:00:00 NR -9.47094 72.7806 main 1925 1925 _____P________ -1 -9.47094 72.7806 99 8 252
1868316S08077 1869 19 SI MM NOT_NAMED 1868-11-13 06:00:00 NR -9.60000 72.4000 reunion main 1955 1926 _____O________ -1 -9.60000 72.4000 99 9.90000 8 250
1868316S08077 1869 19 SI MM NOT_NAMED 1868-11-13 09:00:00 NR -9.74519 72.0104 main 1926 1877 _____P________ -1 -9.74519 72.0104 99 8 249
1868316S08077 1869 19 SI MM NOT_NAMED 1868-11-13 12:00:00 NR -9.90167 71.6097 main 1877 1829 _____P________ -1 -9.90167 71.6097 99 9 248
1868316S08077 1869 19 SI MM NOT_NAMED 1868-11-13 15:00:00 NR -10.0662 71.2038 main 1829 1788 _____P________ -1 -10.0662 71.2038 99 9 247
1868316S08077 1869 19 SI MM NOT_NAMED 1868-11-13 18:00:00 NR -10.2357 70.7984 main 1788 1740 _____P________ -1 -10.2357 70.7984 99 9 247
1868316S08077 1869 19 SI MM NOT_NAMED 1868-11-13 21:00:00 NR -10.4069 70.3994 main 1740 1692 _____P________ -1 -10.4069 70.3994 99 8 246
1868316S08077 1869 19 SI MM NOT_NAMED 1868-11-14 00:00:00 NR -10.5768 70.0128 main 1692 1660 _____P________ -1 -10.5768 70.0128 99 8 246
1868316S08077 1869 19 SI MM NOT_NAMED 1868-11-14 03:00:00 NR -10.7422 69.6443 main 1652 1613 _____P________ -1 -10.7422 69.6443 99 8 245
1868316S08077 1869 19 SI MM NOT_NAMED 1868-11-14 06:00:00 NR -10.9000 69.3000 reunion main 1613 1581 _____O________ -1 -10.9000 69.3000 99 9.90000 7 245
1868316S08077 1869 19 SI MM NOT_NAMED 1868-11-14 09:00:00 NR -11.0364 68.9984 main 1581 1541 _____P________ -1 -11.0364 68.9984 99 6 245
1868316S08077 1869 19 SI MM NOT_NAMED 1868-11-14 12:00:00 NR -11.1664 68.7202 main 1541 1517 _____P________ -1 -11.1664 68.7202 99 6 244
1868316S08077 1869 19 SI MM NOT_NAMED 1868-11-14 15:00:00 NR -11.2917 68.4610 main 1517 1486 _____P________ -1 -11.2917 68.4610 99 6 243
1868316S08077 1869 19 SI MM NOT_NAMED 1868-11-14 18:00:00 NR -11.4136 68.2166 main 1486 1462 _____P________ -1 -11.4136 68.2166 99 5 243
1868316S08077 1869 19 SI MM NOT_NAMED 1868-11-14 21:00:00 NR -11.5339 67.9825 main 1462 1438 _____P________ -1 -11.5339 67.9825 99 5 242
1868316S08077 1869 19 SI MM NOT_NAMED 1868-11-15 00:00:00 NR -11.6541 67.7547 main 1431 1399 _____P________ -1 -11.6541 67.7547 99 5 241
1868316S08077 1869 19 SI MM NOT_NAMED 1868-11-15 03:00:00 NR -11.7756 67.5286 main 1399 1376 _____P________ -1 -11.7756 67.5286 99 5 241
1868316S08077 1869 19 SI MM NOT_NAMED 1868-11-15 06:00:00 NR -11.9000 67.3000 reunion main 1376 1344 _____O________ -1 -11.9000 67.3000 99 9.90000 6 241
1868316S08077 1869 19 SI MM NOT_NAMED 1868-11-15 09:00:00 NR -12.0405 67.0348 main 1344 1313 _____P________ -1 -12.0405 67.0348 99 6 241
1868316S08077 1869 19 SI MM NOT_NAMED 1868-11-15 12:00:00 NR -12.1841 66.7678 main 1313 1282 _____P________ -1 -12.1841 66.7678 99 6 241
1868316S08077 1869 19 SI MM NOT_NAMED 1868-11-15 15:00:00 NR -12.3289 66.5019 main 1282 1250 _____P________ -1 -12.3289 66.5019 99 6 241
1868316S08077 1869 19 SI MM NOT_NAMED 1868-11-15 18:00:00 NR -12.4727 66.2404 main 1243 1219 _____P________ -1 -12.4727 66.2404 99 6 241
1868316S08077 1869 19 SI MM NOT_NAMED 1868-11-15 21:00:00 NR -12.6137 65.9863 main 1219 1196 _____P________ -1 -12.6137 65.9863 99 6 240
1868316S08077 1869 19 SI MM NOT_NAMED 1868-11-16 00:00:00 NR -12.7499 65.7428 main 1188 1157 _____P________ -1 -12.7499 65.7428 99 5 240
1868316S08077 1869 19 SI MM NOT_NAMED 1868-11-16 03:00:00 NR -12.8793 65.5130 main 1157 1134 _____P________ -1 -12.8793 65.5130 99 5 240
1868316S08077 1869 19 SI MM NOT_NAMED 1868-11-16 06:00:00 NR -13.0000 65.3000 reunion main 1134 1111 _____O________ -1 -13.0000 65.3000 99 9.90000 5 240
1868316S08077 1869 19 SI MM NOT_NAMED 1868-11-16 09:00:00 NR -13.1107 65.1061 main 1111 1088 _____P________ -1 -13.1107 65.1061 99 4 240
1868316S08077 1869 19 SI MM NOT_NAMED 1868-11-16 12:00:00 NR -13.2120 64.9298 main 1088 1072 _____P________ -1 -13.2120 64.9298 99 4 239
1868316S08077 1869 19 SI MM NOT_NAMED 1868-11-16 15:00:00 NR -13.3055 64.7685 main 1072 1049 _____P________ -1 -13.3055 64.7685 99 4 239
1868316S08077 1869 19 SI MM NOT_NAMED 1868-11-16 18:00:00 NR -13.3923 64.6198 main 1049 1033 _____P________ -1 -13.3923 64.6198 99 3 239
1868316S08077 1869 19 SI MM NOT_NAMED 1868-11-16 21:00:00 NR -13.4739 64.4811 main 1033 1026 _____P________ -1 -13.4739 64.4811 99 3 239
1868316S08077 1869 19 SI MM NOT_NAMED 1868-11-17 00:00:00 NR -13.5515 64.3499 main 1010 1003 _____P________ -1 -13.5515 64.3499 99 3 239
1868316S08077 1869 19 SI MM NOT_NAMED 1868-11-17 03:00:00 NR -13.6264 64.2237 main 1003 988 _____P________ -1 -13.6264 64.2237 99 3 239
1868316S08077 1869 19 SI MM NOT_NAMED 1868-11-17 06:00:00 NR -13.7000 64.1000 reunion main 988 _____O________ -1 -13.7000 64.1000 99 9.90000 3 238

IBTrACS Databaseについて

本データベースは、米国NOAAが公開する1842年以降の世界の熱帯低気圧のベストトラックデータアーカイブInternational Best Track Archive for Climate Stewardship (IBTrACS)を、ウェブで閲覧しやすい形式に変換したものです。

最終更新日:2021-11-26